sensor_id;sensor_type;location;lat;lon;timestamp;pressure;altitude;pressure_sealevel;temperature;humidity
59825;BME280;45703;50.898;6.054;2023-07-02T00:00:42;99425.38;;;16.31;87.21
59825;BME280;45703;50.898;6.054;2023-07-02T00:03:07;99426.22;;;16.27;88.05
59825;BME280;45703;50.898;6.054;2023-07-02T00:05:33;99427.00;;;16.32;87.08
59825;BME280;45703;50.898;6.054;2023-07-02T00:07:58;99426.50;;;16.25;87.48
59825;BME280;45703;50.898;6.054;2023-07-02T00:10:23;99429.72;;;16.27;87.32
59825;BME280;45703;50.898;6.054;2023-07-02T00:12:49;99419.50;;;16.24;87.46
59825;BME280;45703;50.898;6.054;2023-07-02T00:15:14;99427.06;;;16.22;87.66
59825;BME280;45703;50.898;6.054;2023-07-02T00:17:40;99421.94;;;16.26;86.64
59825;BME280;45703;50.898;6.054;2023-07-02T00:20:07;99428.38;;;16.30;86.47
59825;BME280;45703;50.898;6.054;2023-07-02T00:22:39;99427.81;;;16.33;85.87
59825;BME280;45703;50.898;6.054;2023-07-02T00:25:07;99421.94;;;16.26;86.39
59825;BME280;45703;50.898;6.054;2023-07-02T00:27:32;99426.75;;;16.29;85.81
59825;BME280;45703;50.898;6.054;2023-07-02T00:29:58;99424.06;;;16.34;85.48
59825;BME280;45703;50.898;6.054;2023-07-02T00:32:23;99415.47;;;16.27;85.44
59825;BME280;45703;50.898;6.054;2023-07-02T00:34:49;99425.41;;;16.26;85.62
59825;BME280;45703;50.898;6.054;2023-07-02T00:37:14;99417.34;;;16.26;85.54
59825;BME280;45703;50.898;6.054;2023-07-02T00:39:40;99424.88;;;16.24;85.58
59825;BME280;45703;50.898;6.054;2023-07-02T00:42:06;99416.28;;;16.22;85.83
59825;BME280;45703;50.898;6.054;2023-07-02T00:44:31;99424.66;;;16.21;85.57
59825;BME280;45703;50.898;6.054;2023-07-02T00:46:57;99417.13;;;16.18;85.71
59825;BME280;45703;50.898;6.054;2023-07-02T00:49:23;99408.00;;;16.14;85.92
59825;BME280;45703;50.898;6.054;2023-07-02T00:51:49;99412.81;;;16.17;85.93
59825;BME280;45703;50.898;6.054;2023-07-02T00:54:14;99423.06;;;16.15;86.71
59825;BME280;45703;50.898;6.054;2023-07-02T00:56:40;99415.22;;;16.18;85.76
59825;BME280;45703;50.898;6.054;2023-07-02T00:59:05;99412.28;;;16.15;85.45
59825;BME280;45703;50.898;6.054;2023-07-02T01:01:31;99425.69;;;16.25;85.13
59825;BME280;45703;50.898;6.054;2023-07-02T01:04:04;99420.88;;;16.22;85.41
59825;BME280;45703;50.898;6.054;2023-07-02T01:06:35;99412.25;;;16.20;85.06
59825;BME280;45703;50.898;6.054;2023-07-02T01:09:03;99413.34;;;16.19;85.25
59825;BME280;45703;50.898;6.054;2023-07-02T01:11:34;99417.16;;;16.13;85.46
59825;BME280;45703;50.898;6.054;2023-07-02T01:16:48;99416.34;;;16.12;85.34
59825;BME280;45703;50.898;6.054;2023-07-02T01:19:48;99421.44;;;16.19;84.77
59825;BME280;45703;50.898;6.054;2023-07-02T01:22:23;99418.75;;;16.19;84.60
59825;BME280;45703;50.898;6.054;2023-07-02T01:24:49;99423.06;;;16.15;85.07
59825;BME280;45703;50.898;6.054;2023-07-02T01:27:15;99422.53;;;16.13;84.91
59825;BME280;45703;50.898;6.054;2023-07-02T01:29:41;99421.47;;;16.14;84.97
59825;BME280;45703;50.898;6.054;2023-07-02T01:32:07;99428.47;;;16.10;85.69
59825;BME280;45703;50.898;6.054;2023-07-02T01:34:36;99426.31;;;16.07;85.79
59825;BME280;45703;50.898;6.054;2023-07-02T01:37:03;99419.34;;;16.01;85.39
59825;BME280;45703;50.898;6.054;2023-07-02T01:39:29;99417.72;;;16.10;84.76
59825;BME280;45703;50.898;6.054;2023-07-02T01:42:07;99420.94;;;16.02;85.35
59825;BME280;45703;50.898;6.054;2023-07-02T01:44:33;99425.78;;;16.05;85.41
59825;BME280;45703;50.898;6.054;2023-07-02T01:46:59;99434.38;;;16.07;85.25
59825;BME280;45703;50.898;6.054;2023-07-02T01:49:24;99426.84;;;16.04;85.19
59825;BME280;45703;50.898;6.054;2023-07-02T01:51:50;99436.53;;;16.05;85.75
59825;BME280;45703;50.898;6.054;2023-07-02T01:54:16;99429.03;;;16.02;85.10
59825;BME280;45703;50.898;6.054;2023-07-02T01:56:42;99435.50;;;16.01;85.59
59825;BME280;45703;50.898;6.054;2023-07-02T01:59:07;99431.72;;;16.02;85.52
59825;BME280;45703;50.898;6.054;2023-07-02T02:01:32;99431.72;;;16.02;85.21
59825;BME280;45703;50.898;6.054;2023-07-02T02:03:58;99433.31;;;16.03;84.78
59825;BME280;45703;50.898;6.054;2023-07-02T02:06:24;99438.72;;;16.03;85.74
59825;BME280;45703;50.898;6.054;2023-07-02T02:08:49;99439.81;;;15.97;85.28
59825;BME280;45703;50.898;6.054;2023-07-02T02:11:15;99442.53;;;15.92;86.16
59825;BME280;45703;50.898;6.054;2023-07-02T02:13:40;99446.31;;;15.91;86.63
59825;BME280;45703;50.898;6.054;2023-07-02T02:16:06;99444.13;;;15.98;85.23
59825;BME280;45703;50.898;6.054;2023-07-02T02:18:31;99436.84;;;16.03;85.28
59825;BME280;45703;50.898;6.054;2023-07-02T02:20:56;99445.19;;;16.02;85.64
59825;BME280;45703;50.898;6.054;2023-07-02T02:23:22;99447.34;;;16.00;85.30
59825;BME280;45703;50.898;6.054;2023-07-02T02:25:47;99448.44;;;15.99;85.36
59825;BME280;45703;50.898;6.054;2023-07-02T02:28:12;99454.88;;;16.03;85.27
59825;BME280;45703;50.898;6.054;2023-07-02T02:30:38;99446.81;;;15.98;86.33
59825;BME280;45703;50.898;6.054;2023-07-02T02:33:03;99445.50;;;15.95;85.12
59825;BME280;45703;50.898;6.054;2023-07-02T02:35:28;99446.81;;;15.98;85.16
59825;BME280;45703;50.898;6.054;2023-07-02T02:37:54;99453.28;;;15.97;85.38
59825;BME280;45703;50.898;6.054;2023-07-02T02:40:19;99449.78;;;15.96;85.04
59825;BME280;45703;50.898;6.054;2023-07-02T02:42:44;99453.53;;;16.05;85.00
59825;BME280;45703;50.898;6.054;2023-07-02T02:45:10;99447.09;;;16.01;85.45
59825;BME280;45703;50.898;6.054;2023-07-02T02:47:35;99456.78;;;16.02;85.54
59825;BME280;45703;50.898;6.054;2023-07-02T02:50:01;99459.19;;;15.99;85.86
59825;BME280;45703;50.898;6.054;2023-07-02T02:52:26;99464.28;;;16.05;85.22
59825;BME280;45703;50.898;6.054;2023-07-02T02:54:52;99452.72;;;16.05;85.34
59825;BME280;45703;50.898;6.054;2023-07-02T02:57:20;99457.81;;;16.11;84.94
59825;BME280;45703;50.898;6.054;2023-07-02T02:59:45;99452.72;;;16.10;84.83
59825;BME280;45703;50.898;6.054;2023-07-02T03:02:11;99461.31;;;16.12;84.92
59825;BME280;45703;50.898;6.054;2023-07-02T03:04:36;99455.41;;;16.10;84.75
59825;BME280;45703;50.898;6.054;2023-07-02T03:07:07;99456.19;;;16.10;85.01
59825;BME280;45703;50.898;6.054;2023-07-02T03:09:33;99458.63;;;16.12;84.99
59825;BME280;45703;50.898;6.054;2023-07-02T03:11:58;99459.69;;;16.16;84.93
59825;BME280;45703;50.898;6.054;2023-07-02T03:14:24;99459.72;;;16.11;85.19
59825;BME280;45703;50.898;6.054;2023-07-02T03:16:49;99459.69;;;16.06;85.41
59825;BME280;45703;50.898;6.054;2023-07-02T03:19:15;99470.47;;;16.16;84.94
59825;BME280;45703;50.898;6.054;2023-07-02T03:21:42;99469.41;;;16.12;85.27
59825;BME280;45703;50.898;6.054;2023-07-02T03:24:08;99459.19;;;16.09;85.75
59825;BME280;45703;50.898;6.054;2023-07-02T03:26:37;99455.41;;;16.05;85.72
59825;BME280;45703;50.898;6.054;2023-07-02T03:29:02;99463.75;;;16.08;85.34
59825;BME280;45703;50.898;6.054;2023-07-02T03:31:27;99468.88;;;16.10;85.65
59825;BME280;45703;50.898;6.054;2023-07-02T03:33:53;99468.06;;;16.04;85.83
59825;BME280;45703;50.898;6.054;2023-07-02T03:36:18;99474.25;;;16.10;85.71
59825;BME280;45703;50.898;6.054;2023-07-02T03:38:44;99465.09;;;16.06;85.80
59825;BME280;45703;50.898;6.054;2023-07-02T03:41:09;99486.91;;;16.09;85.87
59825;BME280;45703;50.898;6.054;2023-07-02T03:43:34;99479.34;;;16.11;86.16
59825;BME280;45703;50.898;6.054;2023-07-02T03:46:00;99490.94;;;16.07;86.42
59825;BME280;45703;50.898;6.054;2023-07-02T03:48:26;99490.94;;;16.07;86.35
59825;BME280;45703;50.898;6.054;2023-07-02T03:50:51;99496.31;;;16.07;86.41
59825;BME280;45703;50.898;6.054;2023-07-02T03:53:16;99490.16;;;16.01;86.40
59825;BME280;45703;50.898;6.054;2023-07-02T03:55:42;99504.41;;;16.07;86.71
59825;BME280;45703;50.898;6.054;2023-07-02T03:58:07;99500.09;;;16.01;86.63
59825;BME280;45703;50.898;6.054;2023-07-02T04:00:32;99514.09;;;16.03;87.06
59825;BME280;45703;50.898;6.054;2023-07-02T04:02:58;99515.72;;;15.99;87.34
59825;BME280;45703;50.898;6.054;2023-07-02T04:05:25;99512.78;;;15.95;87.26
59825;BME280;45703;50.898;6.054;2023-07-02T04:07:51;99520.84;;;16.00;88.05
59825;BME280;45703;50.898;6.054;2023-07-02T04:10:16;99523.56;;;15.95;87.63
59825;BME280;45703;50.898;6.054;2023-07-02T04:12:41;99520.88;;;15.95;87.94
59825;BME280;45703;50.898;6.054;2023-07-02T04:15:07;99526.50;;;15.99;87.82
59825;BME280;45703;50.898;6.054;2023-07-02T04:17:33;99524.34;;;15.96;87.47
59825;BME280;45703;50.898;6.054;2023-07-02T04:20:00;99533.78;;;15.98;87.34
59825;BME280;45703;50.898;6.054;2023-07-02T04:22:25;99528.09;;;16.00;87.59
59825;BME280;45703;50.898;6.054;2023-07-02T04:24:50;99534.84;;;16.02;87.68
59825;BME280;45703;50.898;6.054;2023-07-02T04:27:16;99543.47;;;16.04;87.73
59825;BME280;45703;50.898;6.054;2023-07-02T04:29:44;99538.34;;;15.98;87.68
59825;BME280;45703;50.898;6.054;2023-07-02T04:32:11;99532.16;;;16.02;87.88
59825;BME280;45703;50.898;6.054;2023-07-02T04:34:36;99529.72;;;16.06;88.31
59825;BME280;45703;50.898;6.054;2023-07-02T04:37:05;99545.06;;;16.05;88.59
59825;BME280;45703;50.898;6.054;2023-07-02T04:39:31;99534.56;;;16.09;88.02
59825;BME280;45703;50.898;6.054;2023-07-02T04:41:57;99546.94;;;16.05;88.57
59825;BME280;45703;50.898;6.054;2023-07-02T04:44:22;99550.72;;;16.09;88.52
59825;BME280;45703;50.898;6.054;2023-07-02T04:47:01;99547.47;;;16.07;88.52
59825;BME280;45703;50.898;6.054;2023-07-02T04:49:27;99555.03;;;16.15;88.48
59825;BME280;45703;50.898;6.054;2023-07-02T04:51:53;99545.34;;;16.09;88.83
59825;BME280;45703;50.898;6.054;2023-07-02T04:54:20;99553.97;;;16.11;88.98
59825;BME280;45703;50.898;6.054;2023-07-02T04:56:46;99562.28;;;16.14;88.79
59825;BME280;45703;50.898;6.054;2023-07-02T04:59:11;99556.88;;;16.14;88.92
59825;BME280;45703;50.898;6.054;2023-07-02T05:01:36;99567.94;;;16.13;89.40
59825;BME280;45703;50.898;6.054;2023-07-02T05:04:02;99573.34;;;16.13;89.33
59825;BME280;45703;50.898;6.054;2023-07-02T05:06:27;99567.41;;;16.11;89.79
59825;BME280;45703;50.898;6.054;2023-07-02T05:08:52;99558.81;;;16.09;89.51
59825;BME280;45703;50.898;6.054;2023-07-02T05:11:18;99567.41;;;16.16;89.82
59825;BME280;45703;50.898;6.054;2023-07-02T05:13:43;99559.59;;;16.14;89.47
59825;BME280;45703;50.898;6.054;2023-07-02T05:16:09;99572.25;;;16.19;89.55
59825;BME280;45703;50.898;6.054;2023-07-02T05:18:35;99568.44;;;16.25;89.29
59825;BME280;45703;50.898;6.054;2023-07-02T05:21:01;99569.25;;;16.25;88.88
59825;BME280;45703;50.898;6.054;2023-07-02T05:23:26;99574.38;;;16.27;89.31
59825;BME280;45703;50.898;6.054;2023-07-02T05:25:52;99570.09;;;16.21;89.73
59825;BME280;45703;50.898;6.054;2023-07-02T05:28:17;99577.59;;;16.29;89.68
59825;BME280;45703;50.898;6.054;2023-07-02T05:30:43;99576.22;;;16.31;89.05
59825;BME280;45703;50.898;6.054;2023-07-02T05:33:08;99574.38;;;16.37;89.48
59825;BME280;45703;50.898;6.054;2023-07-02T05:35:33;99586.75;;;16.38;89.51
59825;BME280;45703;50.898;6.054;2023-07-02T05:37:59;99585.66;;;16.44;89.24
59825;BME280;45703;50.898;6.054;2023-07-02T05:40:24;99574.63;;;16.40;89.43
59825;BME280;45703;50.898;6.054;2023-07-02T05:42:49;99587.28;;;16.45;89.35
59825;BME280;45703;50.898;6.054;2023-07-02T05:45:15;99579.47;;;16.43;89.33
59825;BME280;45703;50.898;6.054;2023-07-02T05:47:40;99588.63;;;16.47;88.97
59825;BME280;45703;50.898;6.054;2023-07-02T05:50:07;99596.94;;;16.56;89.30
59825;BME280;45703;50.898;6.054;2023-07-02T05:52:33;99591.00;;;16.54;89.73
59825;BME280;45703;50.898;6.054;2023-07-02T05:54:58;99592.06;;;16.58;89.03
59825;BME280;45703;50.898;6.054;2023-07-02T05:57:23;99596.91;;;16.66;88.46
59825;BME280;45703;50.898;6.054;2023-07-02T05:59:49;99600.66;;;16.70;88.58
59825;BME280;45703;50.898;6.054;2023-07-02T06:02:14;99605.22;;;16.74;88.31
59825;BME280;45703;50.898;6.054;2023-07-02T06:04:40;99613.53;;;16.83;87.96
59825;BME280;45703;50.898;6.054;2023-07-02T06:07:05;99587.16;;;16.75;87.91
59825;BME280;45703;50.898;6.054;2023-07-02T06:09:30;99601.66;;;16.89;87.82
59825;BME280;45703;50.898;6.054;2023-07-02T06:11:57;99613.22;;;16.94;87.84
59825;BME280;45703;50.898;6.054;2023-07-02T06:14:22;99620.22;;;16.95;87.71
59825;BME280;45703;50.898;6.054;2023-07-02T06:16:51;99619.94;;;16.97;88.01
59825;BME280;45703;50.898;6.054;2023-07-02T06:19:16;99618.31;;;17.01;87.32
59825;BME280;45703;50.898;6.054;2023-07-02T06:21:41;99620.97;;;17.06;87.46
59825;BME280;45703;50.898;6.054;2023-07-02T06:24:07;99626.88;;;17.08;87.36
59825;BME280;45703;50.898;6.054;2023-07-02T06:26:32;99622.06;;;17.10;87.91
59825;BME280;45703;50.898;6.054;2023-07-02T06:28:57;99622.53;;;17.17;86.88
59825;BME280;45703;50.898;6.054;2023-07-02T06:31:23;99629.00;;;17.21;86.73
59825;BME280;45703;50.898;6.054;2023-07-02T06:33:49;99635.72;;;17.23;86.25
59825;BME280;45703;50.898;6.054;2023-07-02T06:36:14;99633.53;;;17.25;86.21
59825;BME280;45703;50.898;6.054;2023-07-02T06:38:40;99635.97;;;17.27;85.61
59825;BME280;45703;50.898;6.054;2023-07-02T06:41:05;99642.41;;;17.31;85.63
59825;BME280;45703;50.898;6.054;2023-07-02T06:43:31;99634.31;;;17.31;85.27
59825;BME280;45703;50.898;6.054;2023-07-02T06:45:56;99638.38;;;17.33;84.92
59825;BME280;45703;50.898;6.054;2023-07-02T06:48:21;99641.91;;;17.34;84.42
59825;BME280;45703;50.898;6.054;2023-07-02T06:50:47;99642.13;;;17.32;85.02
59825;BME280;45703;50.898;6.054;2023-07-02T06:53:13;99645.13;;;17.31;83.46
59825;BME280;45703;50.898;6.054;2023-07-02T06:55:38;99656.44;;;17.38;84.10
59825;BME280;45703;50.898;6.054;2023-07-02T06:58:05;99649.94;;;17.39;83.68
59825;BME280;45703;50.898;6.054;2023-07-02T07:00:32;99659.94;;;17.43;83.12
59825;BME280;45703;50.898;6.054;2023-07-02T07:02:58;99665.56;;;17.46;83.23
59825;BME280;45703;50.898;6.054;2023-07-02T07:05:23;99666.13;;;17.43;82.86
59825;BME280;45703;50.898;6.054;2023-07-02T07:07:49;99653.66;;;17.47;82.71
59825;BME280;45703;50.898;6.054;2023-07-02T07:10:14;99664.72;;;17.51;82.80
59825;BME280;45703;50.898;6.054;2023-07-02T07:12:39;99667.66;;;17.54;82.99
59825;BME280;45703;50.898;6.054;2023-07-02T07:15:05;99661.41;;;17.64;82.95
59825;BME280;45703;50.898;6.054;2023-07-02T07:17:30;99669.75;;;17.67;82.75
59825;BME280;45703;50.898;6.054;2023-07-02T07:19:56;99676.69;;;17.78;82.73
59825;BME280;45703;50.898;6.054;2023-07-02T07:22:21;99665.84;;;17.83;82.65
59825;BME280;45703;50.898;6.054;2023-07-02T07:24:47;99678.75;;;17.91;82.91
59825;BME280;45703;50.898;6.054;2023-07-02T07:27:12;99669.47;;;18.02;81.92
59825;BME280;45703;50.898;6.054;2023-07-02T07:29:37;99668.63;;;18.07;82.12
59825;BME280;45703;50.898;6.054;2023-07-02T07:32:03;99657.97;;;18.20;81.37
59825;BME280;45703;50.898;6.054;2023-07-02T07:34:29;99661.69;;;18.29;80.62
59825;BME280;45703;50.898;6.054;2023-07-02T07:36:54;99669.69;;;18.39;79.76
59825;BME280;45703;50.898;6.054;2023-07-02T07:39:19;99667.53;;;18.41;79.54
59825;BME280;45703;50.898;6.054;2023-07-02T07:41:48;99673.91;;;18.50;79.61
59825;BME280;45703;50.898;6.054;2023-07-02T07:44:16;99676.59;;;18.50;78.26
59825;BME280;45703;50.898;6.054;2023-07-02T07:46:41;99675.56;;;18.46;76.66
59825;BME280;45703;50.898;6.054;2023-07-02T07:49:07;99681.56;;;18.43;76.85
59825;BME280;45703;50.898;6.054;2023-07-02T07:51:32;99669.44;;;18.41;77.48
59825;BME280;45703;50.898;6.054;2023-07-02T07:53:57;99686.38;;;18.46;77.68
59825;BME280;45703;50.898;6.054;2023-07-02T07:56:23;99680.97;;;18.46;76.77
59825;BME280;45703;50.898;6.054;2023-07-02T07:58:48;99676.72;;;18.40;76.20
59825;BME280;45703;50.898;6.054;2023-07-02T08:01:13;99679.41;;;18.40;76.17
59825;BME280;45703;50.898;6.054;2023-07-02T08:03:39;99691.63;;;18.38;77.01
59825;BME280;45703;50.898;6.054;2023-07-02T08:06:04;99686.59;;;18.26;78.08
59825;BME280;45703;50.898;6.054;2023-07-02T08:08:30;99689.00;;;18.23;78.19
59825;BME280;45703;50.898;6.054;2023-07-02T08:10:55;99690.91;;;18.22;78.01
59825;BME280;45703;50.898;6.054;2023-07-02T08:13:20;99695.50;;;18.22;78.08
59825;BME280;45703;50.898;6.054;2023-07-02T08:15:46;99692.06;;;18.16;76.80
59825;BME280;45703;50.898;6.054;2023-07-02T08:18:11;99700.16;;;18.16;76.41
59825;BME280;45703;50.898;6.054;2023-07-02T08:20:38;99702.34;;;18.14;76.48
59825;BME280;45703;50.898;6.054;2023-07-02T08:23:11;99702.88;;;18.16;77.33
59825;BME280;45703;50.898;6.054;2023-07-02T08:25:43;99692.06;;;18.11;77.44
59825;BME280;45703;50.898;6.054;2023-07-02T08:28:08;99703.97;;;18.10;78.14
59825;BME280;45703;50.898;6.054;2023-07-02T08:30:33;99708.28;;;18.16;77.49
59825;BME280;45703;50.898;6.054;2023-07-02T08:32:59;99714.19;;;18.18;76.97
59825;BME280;45703;50.898;6.054;2023-07-02T08:35:29;99712.84;;;18.16;76.59
59825;BME280;45703;50.898;6.054;2023-07-02T08:37:55;99714.50;;;18.12;76.29
59825;BME280;45703;50.898;6.054;2023-07-02T08:40:22;99712.38;;;18.09;77.40
59825;BME280;45703;50.898;6.054;2023-07-02T08:42:47;99712.13;;;18.05;77.06
59825;BME280;45703;50.898;6.054;2023-07-02T08:45:15;99715.13;;;18.04;77.25
59825;BME280;45703;50.898;6.054;2023-07-02T08:47:41;99711.94;;;17.97;77.24
59825;BME280;45703;50.898;6.054;2023-07-02T08:50:07;99714.34;;;17.98;77.65
59825;BME280;45703;50.898;6.054;2023-07-02T08:52:32;99718.09;;;18.02;77.58
59825;BME280;45703;50.898;6.054;2023-07-02T08:54:58;99718.56;;;18.09;77.75
59825;BME280;45703;50.898;6.054;2023-07-02T08:57:23;99713.16;;;18.14;77.34
59825;BME280;45703;50.898;6.054;2023-07-02T08:59:48;99718.72;;;18.28;77.65
59825;BME280;45703;50.898;6.054;2023-07-02T09:02:16;99715.38;;;18.41;77.70
59825;BME280;45703;50.898;6.054;2023-07-02T09:04:42;99716.53;;;18.58;76.81
59825;BME280;45703;50.898;6.054;2023-07-02T09:07:08;99719.38;;;18.72;76.88
59825;BME280;45703;50.898;6.054;2023-07-02T09:09:47;99722.69;;;18.92;77.48
59825;BME280;45703;50.898;6.054;2023-07-02T09:12:23;99710.56;;;19.08;77.79
59825;BME280;45703;50.898;6.054;2023-07-02T09:14:54;99720.09;;;19.29;76.42
59825;BME280;45703;50.898;6.054;2023-07-02T09:17:21;99715.72;;;19.33;72.72
59825;BME280;45703;50.898;6.054;2023-07-02T09:19:51;99717.53;;;19.37;73.74
59825;BME280;45703;50.898;6.054;2023-07-02T09:22:17;99723.19;;;19.41;72.09
59825;BME280;45703;50.898;6.054;2023-07-02T09:24:51;99709.66;;;19.41;73.37
59825;BME280;45703;50.898;6.054;2023-07-02T09:27:17;99711.03;;;19.38;71.62
59825;BME280;45703;50.898;6.054;2023-07-02T09:29:42;99710.25;;;19.38;71.21
59825;BME280;45703;50.898;6.054;2023-07-02T09:32:07;99719.22;;;19.33;70.73
59825;BME280;45703;50.898;6.054;2023-07-02T09:34:35;99715.63;;;19.19;70.24
59825;BME280;45703;50.898;6.054;2023-07-02T09:37:02;99708.25;;;19.01;70.55
59825;BME280;45703;50.898;6.054;2023-07-02T09:39:32;99719.34;;;19.00;71.64
59825;BME280;45703;50.898;6.054;2023-07-02T09:41:59;99711.06;;;18.92;71.22
59825;BME280;45703;50.898;6.054;2023-07-02T09:44:29;99711.97;;;18.82;70.19
59825;BME280;45703;50.898;6.054;2023-07-02T09:47:07;99721.75;;;18.78;68.91
59825;BME280;45703;50.898;6.054;2023-07-02T09:49:36;99719.00;;;18.83;68.64
59825;BME280;45703;50.898;6.054;2023-07-02T09:52:07;99730.78;;;18.92;67.63
59825;BME280;45703;50.898;6.054;2023-07-02T09:54:33;99735.34;;;18.96;68.79
59825;BME280;45703;50.898;6.054;2023-07-02T09:56:59;99730.72;;;18.97;66.22
59825;BME280;45703;50.898;6.054;2023-07-02T09:59:25;99733.50;;;18.92;66.50
59825;BME280;45703;50.898;6.054;2023-07-02T10:01:51;99727.28;;;18.92;66.67
59825;BME280;45703;50.898;6.054;2023-07-02T10:04:18;99740.00;;;18.91;68.00
59825;BME280;45703;50.898;6.054;2023-07-02T10:06:55;99718.31;;;18.96;68.82
59825;BME280;45703;50.898;6.054;2023-07-02T10:09:34;99724.75;;;19.00;68.49
59825;BME280;45703;50.898;6.054;2023-07-02T10:12:00;99728.94;;;19.11;68.14
59825;BME280;45703;50.898;6.054;2023-07-02T10:14:25;99734.44;;;19.29;68.50
59825;BME280;45703;50.898;6.054;2023-07-02T10:16:53;99728.59;;;19.41;66.28
59825;BME280;45703;50.898;6.054;2023-07-02T10:19:19;99730.38;;;19.50;65.24
59825;BME280;45703;50.898;6.054;2023-07-02T10:21:45;99729.59;;;19.68;65.48
59825;BME280;45703;50.898;6.054;2023-07-02T10:24:17;99744.22;;;19.86;64.82
59825;BME280;45703;50.898;6.054;2023-07-02T10:26:56;99735.94;;;19.96;64.01
59825;BME280;45703;50.898;6.054;2023-07-02T10:29:23;99738.06;;;19.99;62.55
59825;BME280;45703;50.898;6.054;2023-07-02T10:31:56;99731.50;;;20.05;60.41
59825;BME280;45703;50.898;6.054;2023-07-02T10:34:35;99745.44;;;20.17;59.25
59825;BME280;45703;50.898;6.054;2023-07-02T10:37:04;99731.19;;;20.25;59.17
59825;BME280;45703;50.898;6.054;2023-07-02T10:39:30;99755.13;;;20.36;57.27
59825;BME280;45703;50.898;6.054;2023-07-02T10:42:06;99739.44;;;20.33;57.24
59825;BME280;45703;50.898;6.054;2023-07-02T10:44:32;99730.28;;;20.29;56.29
59825;BME280;45703;50.898;6.054;2023-07-02T10:46:58;99731.03;;;20.35;57.51
59825;BME280;45703;50.898;6.054;2023-07-02T10:49:30;99728.00;;;20.36;57.23
59825;BME280;45703;50.898;6.054;2023-07-02T10:52:00;99735.97;;;20.46;58.87
59825;BME280;45703;50.898;6.054;2023-07-02T10:54:26;99722.75;;;20.58;57.30
59825;BME280;45703;50.898;6.054;2023-07-02T10:57:01;99719.13;;;20.62;57.02
59825;BME280;45703;50.898;6.054;2023-07-02T10:59:26;99730.72;;;20.81;56.94
59825;BME280;45703;50.898;6.054;2023-07-02T11:01:51;99729.34;;;20.84;55.90
59825;BME280;45703;50.898;6.054;2023-07-02T11:04:17;99723.53;;;20.90;52.73
59825;BME280;45703;50.898;6.054;2023-07-02T11:06:42;99717.09;;;20.86;50.04
59825;BME280;45703;50.898;6.054;2023-07-02T11:09:17;99733.00;;;20.93;51.98
59825;BME280;45703;50.898;6.054;2023-07-02T11:11:53;99736.59;;;20.88;49.58
59825;BME280;45703;50.898;6.054;2023-07-02T11:14:35;99722.53;;;20.86;50.80
59825;BME280;45703;50.898;6.054;2023-07-02T11:17:06;99742.00;;;20.88;51.27
59825;BME280;45703;50.898;6.054;2023-07-02T11:19:35;99734.38;;;20.90;52.79
59825;BME280;45703;50.898;6.054;2023-07-02T11:22:00;99728.28;;;20.80;51.41
59825;BME280;45703;50.898;6.054;2023-07-02T11:24:34;99734.75;;;20.84;52.55
59825;BME280;45703;50.898;6.054;2023-07-02T11:27:01;99732.56;;;20.86;53.68
59825;BME280;45703;50.898;6.054;2023-07-02T11:29:30;99739.59;;;21.00;54.83
59825;BME280;45703;50.898;6.054;2023-07-02T11:32:10;99748.75;;;21.04;54.56
59825;BME280;45703;50.898;6.054;2023-07-02T11:34:36;99743.31;;;21.04;54.23
59825;BME280;45703;50.898;6.054;2023-07-02T11:37:03;99745.44;;;21.07;54.12
59825;BME280;45703;50.898;6.054;2023-07-02T11:39:29;99745.22;;;21.17;53.19
59825;BME280;45703;50.898;6.054;2023-07-02T11:41:55;99732.59;;;21.26;53.47
59825;BME280;45703;50.898;6.054;2023-07-02T11:44:20;99736.81;;;21.32;53.04
59825;BME280;45703;50.898;6.054;2023-07-02T11:46:46;99722.78;;;21.39;53.58
59825;BME280;45703;50.898;6.054;2023-07-02T11:49:12;99733.56;;;21.44;53.94
59825;BME280;45703;50.898;6.054;2023-07-02T11:51:39;99746.44;;;21.38;52.80
59825;BME280;45703;50.898;6.054;2023-07-02T11:54:05;99736.81;;;21.32;53.25
59825;BME280;45703;50.898;6.054;2023-07-02T11:56:32;99738.63;;;21.23;53.52
59825;BME280;45703;50.898;6.054;2023-07-02T11:58:57;99737.63;;;21.19;53.34
59825;BME280;45703;50.898;6.054;2023-07-02T12:01:23;99740.22;;;21.11;53.55
59825;BME280;45703;50.898;6.054;2023-07-02T12:03:48;99744.34;;;21.08;54.51
59825;BME280;45703;50.898;6.054;2023-07-02T12:06:13;99744.44;;;21.03;54.20
59825;BME280;45703;50.898;6.054;2023-07-02T12:08:39;99743.03;;;21.06;54.45
59825;BME280;45703;50.898;6.054;2023-07-02T12:11:04;99755.59;;;21.02;54.66
59825;BME280;45703;50.898;6.054;2023-07-02T12:13:30;99739.00;;;20.90;54.75
59825;BME280;45703;50.898;6.054;2023-07-02T12:15:55;99755.78;;;20.92;54.40
59825;BME280;45703;50.898;6.054;2023-07-02T12:18:20;99751.47;;;21.04;55.39
59825;BME280;45703;50.898;6.054;2023-07-02T12:20:46;99739.41;;;21.10;55.19
59825;BME280;45703;50.898;6.054;2023-07-02T12:23:11;99743.63;;;21.16;53.83
59825;BME280;45703;50.898;6.054;2023-07-02T12:25:37;99750.78;;;21.26;52.82
59825;BME280;45703;50.898;6.054;2023-07-02T12:28:03;99752.78;;;21.34;53.75
59825;BME280;45703;50.898;6.054;2023-07-02T12:30:29;99746.44;;;21.38;52.61
59825;BME280;45703;50.898;6.054;2023-07-02T12:32:55;99741.00;;;21.38;52.86
59825;BME280;45703;50.898;6.054;2023-07-02T12:35:20;99742.41;;;21.49;53.24
59825;BME280;45703;50.898;6.054;2023-07-02T12:37:48;99739.91;;;21.53;52.78
59825;BME280;45703;50.898;6.054;2023-07-02T12:40:14;99728.50;;;21.64;52.14
59825;BME280;45703;50.898;6.054;2023-07-02T12:42:41;99741.59;;;21.76;52.70
59825;BME280;45703;50.898;6.054;2023-07-02T12:45:07;99743.50;;;21.75;51.98
59825;BME280;45703;50.898;6.054;2023-07-02T12:47:33;99751.66;;;21.75;52.85
59825;BME280;45703;50.898;6.054;2023-07-02T12:49:58;99748.66;;;21.63;51.51
59825;BME280;45703;50.898;6.054;2023-07-02T12:52:24;99750.25;;;21.51;52.43
59825;BME280;45703;50.898;6.054;2023-07-02T12:54:49;99750.88;;;21.34;52.49
59825;BME280;45703;50.898;6.054;2023-07-02T12:57:14;99758.53;;;21.32;53.00
59825;BME280;45703;50.898;6.054;2023-07-02T12:59:40;99748.44;;;21.33;54.16